Time;durP1;ratioP1;P1;durP2;ratioP2;P2;SDS_P1;SDS_P2;PMS_P1;PMS_P2;Temp;Humidity;BMP_temperature;BMP_pressure;BME280_temperature;BME280_humidity;BME280_pressure;Samples;Min_cycle;Max_cycle;Signal;HPM_P1;HPM_P2
2022/06/29 00:00:25;;;;;;;6.20;2.72;;;;;;;16.43;100.00;101631.03;4991680;28;20513;-69
2022/06/29 00:02:51;;;;;;;5.53;2.63;;;;;;;16.38;100.00;101624.16;4993879;28;20104;-69
2022/06/29 00:05:21;;;;;;;6.68;2.88;;;;;;;16.35;100.00;101620.78;4994593;28;20041;-70
2022/06/29 00:07:47;;;;;;;4.93;2.67;;;;;;;16.35;100.00;101623.47;4993970;28;20121;-68
2022/06/29 00:10:14;;;;;;;6.65;3.05;;;;;;;16.31;100.00;101612.06;4993778;28;20116;-68
2022/06/29 00:12:40;;;;;;;5.45;2.72;;;;;;;16.30;100.00;101620.19;4993700;28;20088;-68
2022/06/29 00:15:06;;;;;;;4.82;2.50;;;;;;;16.30;100.00;101604.16;4992422;28;20026;-70
2022/06/29 00:17:33;;;;;;;3.95;2.42;;;;;;;16.30;100.00;101604.16;4992475;28;20418;-70
2022/06/29 00:20:04;;;;;;;4.30;2.30;;;;;;;16.28;100.00;101600.69;4993710;28;20104;-69
2022/06/29 00:22:30;;;;;;;3.45;2.55;;;;;;;16.25;100.00;101604.41;5008382;28;20034;-69
2022/06/29 00:24:55;;;;;;;7.65;2.53;;;;;;;16.23;100.00;101603.66;4992399;28;20026;-69
2022/06/29 00:27:21;;;;;;;3.97;2.35;;;;;;;16.21;100.00;101598.41;4993320;28;20032;-69
2022/06/29 00:29:47;;;;;;;5.45;2.50;;;;;;;16.20;100.00;101598.47;4993779;28;20038;-69
2022/06/29 00:32:13;;;;;;;4.85;2.80;;;;;;;16.16;100.00;101599.59;4993221;28;20030;-68
2022/06/29 00:34:38;;;;;;;7.65;2.53;;;;;;;16.10;100.00;101600.81;4993389;28;20030;-69
2022/06/29 00:37:04;;;;;;;4.40;2.60;;;;;;;16.07;100.00;101608.13;4993287;28;20028;-69
2022/06/29 00:39:31;;;;;;;5.40;2.70;;;;;;;16.01;100.00;101588.81;4993423;28;20101;-70
2022/06/29 00:41:56;;;;;;;4.72;2.63;;;;;;;16.00;100.00;101594.25;4993071;28;20038;-69
2022/06/29 00:44:22;;;;;;;4.07;2.42;;;;;;;15.98;100.00;101597.00;4992017;28;20038;-69
2022/06/29 00:46:53;;;;;;;6.30;2.58;;;;;;;15.96;100.00;101585.53;4993538;28;20034;-69
2022/06/29 00:49:20;;;;;;;3.42;2.20;;;;;;;15.94;100.00;101583.91;4993217;28;20037;-68
2022/06/29 00:51:48;;;;;;;4.60;2.60;;;;;;;15.92;100.00;101580.44;4991846;28;20125;-69
2022/06/29 00:54:19;;;;;;;3.63;2.42;;;;;;;15.87;100.00;101583.41;4993099;28;20041;-69
2022/06/29 00:56:45;;;;;;;5.68;2.40;;;;;;;15.82;100.00;101591.66;4992005;28;20030;-69
2022/06/29 00:59:13;;;;;;;3.63;2.50;;;;;;;15.80;100.00;101581.97;4993086;28;20038;-69
2022/06/29 01:01:40;;;;;;;4.45;2.30;;;;;;;15.80;100.00;101581.97;4992532;28;20073;-68
2022/06/29 01:04:06;;;;;;;4.82;2.55;;;;;;;15.77;100.00;101571.44;4992813;28;20034;-68
2022/06/29 01:06:32;;;;;;;4.55;2.50;;;;;;;15.76;100.00;101573.25;4992829;28;20081;-69
2022/06/29 01:08:57;;;;;;;3.55;2.30;;;;;;;15.75;100.00;101568.84;5007796;28;20502;-68
2022/06/29 01:11:23;;;;;;;4.32;2.40;;;;;;;15.74;100.00;101564.44;4992213;28;20026;-68
2022/06/29 01:13:48;;;;;;;4.57;2.42;;;;;;;15.71;100.00;101567.31;4991693;28;20466;-69
2022/06/29 01:16:14;;;;;;;3.47;2.22;;;;;;;15.67;100.00;101569.28;4992983;28;20113;-70
2022/06/29 01:18:39;;;;;;;3.42;2.20;;;;;;;15.65;100.00;101570.31;4992456;28;20474;-70
2022/06/29 01:21:08;;;;;;;4.75;2.55;;;;;;;15.61;100.00;101566.94;4992491;28;20030;-69
2022/06/29 01:23:34;;;;;;;7.63;2.90;;;;;;;15.59;100.00;101562.63;4992545;28;20539;-69
2022/06/29 01:26:04;;;;;;;5.00;2.50;;;;;;;15.56;100.00;101566.31;5007685;28;20173;-69
2022/06/29 01:28:30;;;;;;;4.25;2.40;;;;;;;15.52;100.00;101570.97;4992320;28;20026;-69
2022/06/29 01:30:56;;;;;;;6.07;2.70;;;;;;;15.49;100.00;101572.97;5007548;28;20477;-70
2022/06/29 01:33:21;;;;;;;8.38;2.63;;;;;;;15.44;100.00;101562.53;4992250;28;20029;-68
2022/06/29 01:35:46;;;;;;;4.85;2.97;;;;;;;15.40;100.00;101564.50;4975269;28;20181;-68
2022/06/29 01:38:12;;;;;;;4.72;2.90;;;;;;;15.34;100.00;101564.81;4992509;28;20058;-69
2022/06/29 01:40:37;;;;;;;4.43;2.67;;;;;;;15.31;100.00;101564.13;4992432;28;20488;-69
2022/06/29 01:43:03;;;;;;;4.93;2.70;;;;;;;15.28;100.00;101562.50;5007402;28;20034;-69
2022/06/29 01:45:28;;;;;;;4.38;2.75;;;;;;;15.25;100.00;101570.66;4992237;28;20184;-69
2022/06/29 01:47:54;;;;;;;6.53;2.90;;;;;;;15.26;100.00;101566.19;4992403;28;20504;-68
2022/06/29 01:50:19;;;;;;;5.30;2.65;;;;;;;15.29;100.00;101560.69;4992314;28;20042;-69
2022/06/29 01:52:45;;;;;;;5.60;3.20;;;;;;;15.29;100.00;101561.53;4992260;28;20026;-69
2022/06/29 01:55:10;;;;;;;6.15;2.67;;;;;;;15.30;100.00;101568.59;4992354;28;20026;-69
2022/06/29 01:57:36;;;;;;;4.78;2.88;;;;;;;15.26;100.00;101559.03;5007360;28;20023;-69
2022/06/29 02:00:01;;;;;;;4.72;2.80;;;;;;;15.22;100.00;101558.34;4992619;28;20034;-69
2022/06/29 02:02:26;;;;;;;5.28;3.03;;;;;;;15.22;100.00;101550.31;4991694;28;20072;-68
2022/06/29 02:04:52;;;;;;;4.75;3.30;;;;;;;15.22;100.00;101552.16;4992303;28;20085;-69
2022/06/29 02:07:18;;;;;;;6.43;3.38;;;;;;;15.24;100.00;101556.47;4991383;28;20070;-69
2022/06/29 02:09:44;;;;;;;5.10;3.22;;;;;;;15.21;100.00;101548.59;4990956;28;20125;-68
2022/06/29 02:12:09;;;;;;;6.15;3.88;;;;;;;15.20;100.00;101541.53;4991068;28;20031;-68
2022/06/29 02:14:34;;;;;;;8.20;3.47;;;;;;;15.24;100.00;101543.13;4990838;28;20034;-68
2022/06/29 02:17:00;;;;;;;6.25;3.35;;;;;;;15.26;100.00;101552.84;4992159;28;20026;-68
2022/06/29 02:19:25;;;;;;;6.80;3.88;;;;;;;15.23;100.00;101543.19;5007218;28;20371;-69
2022/06/29 02:21:50;;;;;;;7.22;3.47;;;;;;;15.21;100.00;101537.91;5007284;28;20026;-69
2022/06/29 02:24:16;;;;;;;7.70;3.70;;;;;;;15.21;100.00;101539.75;4993773;28;20038;-69
2022/06/29 02:26:41;;;;;;;6.55;3.50;;;;;;;15.22;100.00;101534.31;4994642;28;20030;-69
2022/06/29 02:29:06;;;;;;;5.78;3.50;;;;;;;15.24;100.00;101535.09;4995668;28;20553;-69
2022/06/29 02:37:00;;;;;;;6.70;3.63;;;;;;;15.13;100.00;101528.59;4995052;28;20041;-69
2022/06/29 02:39:25;;;;;;;7.32;3.90;;;;;;;15.13;100.00;101528.59;4995699;28;20023;-69
2022/06/29 02:41:50;;;;;;;5.57;3.83;;;;;;;15.11;100.00;101533.16;4994376;28;20037;-69
2022/06/29 02:44:16;;;;;;;8.15;3.90;;;;;;;15.08;100.00;101531.53;4995533;28;20033;-69
2022/06/29 02:46:41;;;;;;;8.90;4.60;;;;;;;15.04;100.00;101514.81;4994550;28;20389;-70
2022/06/29 02:49:07;;;;;;;8.10;3.85;;;;;;;15.01;100.00;101519.44;5009919;28;20035;-68
2022/06/29 02:51:32;;;;;;;6.10;3.78;;;;;;;14.95;100.00;101512.66;4995316;28;20038;-68
2022/06/29 02:53:57;;;;;;;7.72;3.83;;;;;;;14.89;100.00;101512.97;4994073;28;20023;-68
2022/06/29 02:56:23;;;;;;;8.52;4.10;;;;;;;14.86;100.00;101518.44;4994167;28;20096;-69
2022/06/29 02:58:48;;;;;;;6.55;4.20;;;;;;;14.85;100.00;101511.41;4977244;28;20054;-69
2022/06/29 03:01:14;;;;;;;6.22;3.97;;;;;;;14.81;100.00;101515.16;4960013;28;20041;-68
2022/06/29 03:03:39;;;;;;;5.25;4.15;;;;;;;14.78;100.00;101512.66;4994110;28;20570;-69
2022/06/29 03:06:05;;;;;;;6.28;4.43;;;;;;;14.74;100.00;101512.81;4995035;28;20027;-69
2022/06/29 03:08:30;;;;;;;6.25;4.40;;;;;;;14.72;100.00;101512.03;4995135;28;20034;-69
2022/06/29 03:10:55;;;;;;;7.82;4.43;;;;;;;14.72;100.00;101500.53;4995042;28;20030;-69
2022/06/29 03:13:21;;;;;;;7.85;4.20;;;;;;;14.66;100.00;101500.81;4995094;28;20030;-69
2022/06/29 03:15:46;;;;;;;6.60;4.40;;;;;;;14.65;100.00;101493.78;4977547;28;20441;-69
2022/06/29 03:18:11;;;;;;;6.10;4.10;;;;;;;14.62;100.00;101499.25;4995001;28;20437;-69
2022/06/29 03:20:37;;;;;;;6.65;4.38;;;;;;;14.58;100.00;101495.88;4994880;28;20544;-69
2022/06/29 03:23:02;;;;;;;6.18;4.15;;;;;;;14.59;100.00;101501.09;4994934;28;20553;-69
2022/06/29 03:25:27;;;;;;;7.05;4.45;;;;;;;14.57;100.00;101491.47;4994550;28;20426;-69
2022/06/29 03:27:54;;;;;;;8.25;4.40;;;;;;;14.58;100.00;101493.19;4994875;28;20053;-69
2022/06/29 03:30:19;;;;;;;7.22;4.75;;;;;;;14.56;100.00;101492.41;4994575;28;20477;-69
2022/06/29 03:32:44;;;;;;;6.78;4.35;;;;;;;14.58;100.00;101502.03;4994780;28;20117;-69
2022/06/29 03:35:10;;;;;;;6.70;4.43;;;;;;;14.59;100.00;101492.22;4994195;28;20030;-69
2022/06/29 03:37:35;;;;;;;9.02;4.93;;;;;;;14.58;100.00;101483.38;4994556;28;20038;-69
2022/06/29 03:40:01;;;;;;;8.40;4.70;;;;;;;14.53;100.00;101485.44;4993334;28;20496;-69
2022/06/29 03:42:26;;;;;;;6.30;4.80;;;;;;;14.53;100.00;101484.56;4994428;28;20490;-70
2022/06/29 03:44:52;;;;;;;7.45;5.13;;;;;;;14.55;100.00;101482.69;4994434;28;20034;-70
2022/06/29 03:47:17;;;;;;;6.63;4.68;;;;;;;14.56;100.00;101482.59;4994542;28;20109;-68
2022/06/29 03:49:43;;;;;;;7.85;4.50;;;;;;;14.58;100.00;101485.19;4994256;28;20062;-68
2022/06/29 03:52:08;;;;;;;6.60;4.90;;;;;;;14.54;100.00;101481.81;4993288;28;20746;-68
2022/06/29 03:54:33;;;;;;;6.75;4.97;;;;;;;14.55;100.00;101491.56;4994040;28;20095;-68
2022/06/29 03:56:59;;;;;;;6.82;4.75;;;;;;;14.60;100.00;101491.28;4976921;28;20105;-70
2022/06/29 03:59:24;;;;;;;8.32;5.00;;;;;;;14.61;100.00;101489.50;5009027;28;20185;-69
2022/06/29 04:01:50;;;;;;;7.30;4.65;;;;;;;14.63;100.00;101493.81;4993886;28;20065;-69
2022/06/29 04:04:16;;;;;;;9.23;5.00;;;;;;;14.67;100.00;101483.91;4994456;28;20038;-69
2022/06/29 04:06:41;;;;;;;10.43;5.63;;;;;;;14.69;100.00;101482.00;4993732;28;20066;-69
2022/06/29 04:09:07;;;;;;;6.68;4.53;;;;;;;14.72;100.00;101477.38;4993943;28;20027;-68
2022/06/29 04:11:52;;;;;;;10.70;5.63;;;;;;;14.75;100.00;101482.53;4993665;28;20073;-68
2022/06/29 04:14:24;;;;;;;9.10;5.05;;;;;;;14.77;100.00;101477.16;4994104;28;20033;-69
2022/06/29 04:16:51;;;;;;;7.93;5.30;;;;;;;14.81;100.00;101486.69;5008610;28;20054;-68
2022/06/29 04:19:16;;;;;;;6.93;5.47;;;;;;;14.82;100.00;101479.56;4993855;28;20022;-69
2022/06/29 04:21:42;;;;;;;9.10;5.38;;;;;;;14.83;100.00;101490.13;4993593;28;20034;-69
2022/06/29 04:24:07;;;;;;;6.85;5.32;;;;;;;14.84;100.00;101485.69;4993782;28;20478;-69
2022/06/29 04:26:33;;;;;;;8.02;5.30;;;;;;;14.87;100.00;101477.50;4993317;28;20033;-69
2022/06/29 04:28:58;;;;;;;8.32;5.22;;;;;;;14.91;100.00;101479.06;4992527;28;20027;-68
2022/06/29 04:31:23;;;;;;;7.65;5.40;;;;;;;14.96;100.00;101471.72;4993717;28;20113;-68
2022/06/29 04:33:49;;;;;;;9.20;5.35;;;;;;;15.01;100.00;101475.00;4993572;28;20033;-69
2022/06/29 04:36:14;;;;;;;7.03;5.20;;;;;;;15.07;100.00;101481.78;5008491;28;20500;-68
2022/06/29 04:38:40;;;;;;;11.55;5.43;;;;;;;15.10;100.00;101468.28;4992939;28;20057;-69
2022/06/29 04:41:05;;;;;;;10.00;5.78;;;;;;;15.17;100.00;101467.00;4991710;28;20045;-69
2022/06/29 04:43:31;;;;;;;6.75;5.25;;;;;;;15.27;100.00;101464.72;4993094;28;20426;-69
2022/06/29 04:48:41;;;;;;;8.93;5.90;;;;;;;15.44;100.00;101455.75;4991981;28;20049;-69
2022/06/29 04:51:07;;;;;;;9.52;6.53;;;;;;;15.51;100.00;101450.94;4992598;28;20498;-69
2022/06/29 04:53:32;;;;;;;8.18;5.55;;;;;;;15.62;100.00;101453.03;4992924;28;20034;-70
2022/06/29 04:55:57;;;;;;;9.88;6.38;;;;;;;15.69;100.00;101451.69;4993147;28;20462;-70
2022/06/29 04:58:23;;;;;;;10.07;6.15;;;;;;;15.79;100.00;101447.56;4991750;28;20030;-69
2022/06/29 05:00:48;;;;;;;9.43;6.18;;;;;;;15.86;100.00;101446.31;4992855;28;20030;-68
2022/06/29 05:03:14;;;;;;;7.80;5.72;;;;;;;15.95;100.00;101438.72;4991771;28;20576;-68
2022/06/29 05:05:39;;;;;;;7.57;6.20;;;;;;;15.99;100.00;101440.25;4992919;28;20038;-68
2022/06/29 05:08:05;;;;;;;9.52;6.50;;;;;;;16.07;100.00;101446.00;4992196;28;20076;-69
2022/06/29 05:10:31;;;;;;;9.25;6.78;;;;;;;16.16;100.00;101433.94;4990775;28;20022;-69
2022/06/29 05:12:56;;;;;;;10.27;6.55;;;;;;;16.28;100.00;101438.56;4991857;28;20057;-69
2022/06/29 05:15:22;;;;;;;9.15;6.72;;;;;;;16.35;100.00;101439.03;4975275;28;20027;-68
2022/06/29 05:17:47;;;;;;;9.30;6.88;;;;;;;16.42;100.00;101431.50;4990957;28;20030;-69
2022/06/29 05:20:13;;;;;;;7.53;6.07;;;;;;;16.49;100.00;101424.84;4990958;28;20474;-69
2022/06/29 05:22:39;;;;;;;9.80;6.85;;;;;;;16.55;100.00;101424.47;4991530;28;20474;-68
2022/06/29 05:25:05;;;;;;;9.65;6.53;;;;;;;16.61;100.00;101418.75;4992614;28;20045;-68
2022/06/29 05:27:31;;;;;;;8.93;6.47;;;;;;;16.63;100.00;101432.03;4992462;28;20045;-69
2022/06/29 05:29:56;;;;;;;9.15;6.80;;;;;;;16.65;100.00;101428.31;5007511;28;20466;-69
2022/06/29 05:32:23;;;;;;;10.75;6.85;;;;;;;16.73;100.00;101419.81;4992211;28;20370;-69
2022/06/29 05:34:49;;;;;;;10.75;6.75;;;;;;;16.79;100.00;101410.53;4991425;28;20030;-69
2022/06/29 05:37:14;;;;;;;9.68;6.80;;;;;;;16.85;100.00;101419.06;4991450;28;20493;-69
2022/06/29 05:39:39;;;;;;;12.55;7.57;;;;;;;16.94;100.00;101422.13;4991079;28;20037;-69
2022/06/29 05:42:05;;;;;;;13.90;7.13;;;;;;;17.03;100.00;101413.53;4992228;28;20030;-70
2022/06/29 05:44:30;;;;;;;9.90;7.25;;;;;;;17.07;99.55;101415.06;4992056;28;20034;-69
2022/06/29 05:46:56;;;;;;;14.55;7.47;;;;;;;17.13;100.00;101412.00;5007517;28;20452;-68
2022/06/29 05:49:21;;;;;;;9.10;6.80;;;;;;;17.20;100.00;101413.34;4990953;28;20081;-69
2022/06/29 05:51:46;;;;;;;11.25;6.80;;;;;;;17.29;100.00;101411.88;4992300;28;20064;-69
2022/06/29 05:54:12;;;;;;;15.05;6.85;;;;;;;17.33;99.55;101404.53;4991970;28;20433;-69
2022/06/29 05:56:37;;;;;;;13.25;7.88;;;;;;;17.37;98.75;101403.38;4991985;28;20470;-69
2022/06/29 05:59:02;;;;;;;9.32;7.03;;;;;;;17.45;98.56;101413.56;4993708;28;20381;-69
2022/06/29 06:01:28;;;;;;;10.98;6.63;;;;;;;17.53;98.34;101409.44;4994773;28;20059;-69
2022/06/29 06:03:53;;;;;;;12.18;7.25;;;;;;;17.62;98.79;101409.78;5010964;28;20033;-69
2022/06/29 06:06:18;;;;;;;9.75;7.05;;;;;;;17.67;98.81;101419.25;4978512;28;20085;-69
2022/06/29 06:08:44;;;;;;;9.57;6.85;;;;;;;17.73;98.03;101415.28;4996089;28;20034;-69
2022/06/29 06:11:09;;;;;;;9.45;6.90;;;;;;;17.78;97.80;101412.31;4978585;28;20054;-70
2022/06/29 06:13:35;;;;;;;13.65;7.38;;;;;;;17.87;96.98;101413.53;4995644;28;20034;-69
2022/06/29 06:16:00;;;;;;;11.38;7.18;;;;;;;17.92;97.34;101401.53;4995951;28;20502;-69
2022/06/29 06:18:25;;;;;;;10.68;7.40;;;;;;;17.97;96.49;101409.31;4994682;28;20026;-69
2022/06/29 06:20:51;;;;;;;11.20;7.22;;;;;;;18.06;96.81;101408.69;4995765;28;20018;-69
2022/06/29 06:23:16;;;;;;;10.38;6.57;;;;;;;18.21;96.76;101404.13;4995567;28;20049;-69
2022/06/29 06:25:42;;;;;;;9.23;6.28;;;;;;;18.34;96.82;101402.28;4994218;28;20125;-69
2022/06/29 06:28:08;;;;;;;8.73;6.35;;;;;;;18.42;95.13;101408.97;4995763;28;20026;-69
2022/06/29 06:30:33;;;;;;;9.02;6.63;;;;;;;18.48;94.74;101409.38;4995514;28;20026;-69
2022/06/29 06:32:59;;;;;;;10.93;6.57;;;;;;;18.58;94.66;101416.78;4995214;28;20114;-69
2022/06/29 06:35:24;;;;;;;12.82;6.85;;;;;;;18.67;94.37;101413.50;4995483;28;20394;-69
2022/06/29 06:37:52;;;;;;;10.52;6.45;;;;;;;18.78;94.81;101412.72;4995513;28;20520;-69
2022/06/29 06:43:02;;;;;;;9.73;6.78;;;;;;;18.92;93.50;101418.00;4995343;28;20037;-69
2022/06/29 06:45:27;;;;;;;10.45;6.47;;;;;;;18.99;93.37;101408.53;4994136;28;20038;-69
2022/06/29 06:47:53;;;;;;;9.18;6.38;;;;;;;19.07;92.88;101412.50;4995129;28;20029;-69
2022/06/29 06:50:19;;;;;;;10.57;6.10;;;;;;;19.19;92.90;101410.75;4995244;28;20105;-69
2022/06/29 06:52:44;;;;;;;8.23;6.25;;;;;;;19.29;93.20;101415.34;4994013;28;20065;-69
2022/06/29 06:55:09;;;;;;;7.75;6.00;;;;;;;19.35;90.65;101410.50;4995052;28;20113;-68
2022/06/29 06:57:35;;;;;;;8.77;6.30;;;;;;;19.42;91.70;101406.41;4995011;28;20072;-68
2022/06/29 07:00:00;;;;;;;9.27;6.43;;;;;;;19.54;91.53;101407.31;4995190;28;20469;-69
2022/06/29 07:02:26;;;;;;;8.68;5.95;;;;;;;19.72;91.65;101405.97;4994784;28;20061;-69
2022/06/29 07:04:51;;;;;;;11.20;6.00;;;;;;;19.93;91.11;101410.72;4994660;28;20077;-69
2022/06/29 07:07:17;;;;;;;7.63;5.95;;;;;;;20.11;88.93;101411.16;4995252;28;20030;-69
2022/06/29 07:09:42;;;;;;;7.18;6.22;;;;;;;20.20;87.64;101412.28;4994401;28;20117;-69
2022/06/29 07:12:08;;;;;;;8.95;6.15;;;;;;;20.29;87.35;101408.88;4994868;28;20405;-69
2022/06/29 07:14:33;;;;;;;8.98;6.18;;;;;;;20.30;86.70;101407.91;4994445;28;20034;-70
2022/06/29 07:16:58;;;;;;;11.77;6.18;;;;;;;20.31;86.84;101404.25;5010013;28;20088;-69
2022/06/29 07:19:24;;;;;;;10.10;6.00;;;;;;;20.34;87.39;101405.84;4993505;28;20397;-69
2022/06/29 07:21:49;;;;;;;10.45;6.32;;;;;;;20.40;87.95;101403.53;4993426;28;20397;-69
2022/06/29 07:24:15;;;;;;;9.20;6.05;;;;;;;20.45;88.14;101393.28;4993394;28;20038;-69
2022/06/29 07:26:40;;;;;;;8.10;5.60;;;;;;;20.53;88.28;101395.34;4994576;28;20038;-68
2022/06/29 07:29:05;;;;;;;7.18;5.65;;;;;;;20.61;88.38;101392.06;4994727;28;20035;-69
2022/06/29 07:31:31;;;;;;;8.15;5.97;;;;;;;20.62;86.89;101389.25;5009689;28;20482;-69
2022/06/29 07:33:56;;;;;;;12.20;6.43;;;;;;;20.65;87.52;101396.22;4994080;28;20092;-69
2022/06/29 07:36:22;;;;;;;9.10;6.03;;;;;;;20.65;87.85;101395.38;4994688;28;20026;-70
2022/06/29 07:38:47;;;;;;;10.68;6.47;;;;;;;20.73;88.32;101392.94;4994713;28;20026;-70
2022/06/29 07:41:12;;;;;;;9.05;5.90;;;;;;;20.83;88.46;101395.78;4994528;28;20027;-70
2022/06/29 07:43:38;;;;;;;10.02;5.80;;;;;;;20.84;84.44;101395.66;4994468;28;20492;-70
2022/06/29 07:46:04;;;;;;;8.13;5.30;;;;;;;20.89;86.26;101396.13;4994137;28;20451;-68
2022/06/29 07:48:29;;;;;;;12.57;5.70;;;;;;;21.00;86.42;101391.72;4994114;28;20034;-69
2022/06/29 07:50:54;;;;;;;6.45;5.00;;;;;;;21.07;85.80;101393.81;4992698;28;20033;-68
2022/06/29 07:53:20;;;;;;;10.30;5.70;;;;;;;21.15;86.76;101395.91;4994138;28;20026;-69
2022/06/29 07:55:46;;;;;;;9.88;5.80;;;;;;;21.20;84.86;101396.38;4994051;28;20030;-68
2022/06/29 07:58:15;;;;;;;10.20;5.93;;;;;;;21.25;84.46;101396.88;4992838;28;20477;-69
2022/06/29 08:00:41;;;;;;;11.57;5.38;;;;;;;21.34;83.27;101411.41;4994067;28;20034;-68
2022/06/29 08:03:07;;;;;;;7.50;4.82;;;;;;;21.45;84.05;101400.59;4993811;28;20042;-68
2022/06/29 08:05:33;;;;;;;8.50;5.00;;;;;;;21.59;82.64;101398.66;5008685;28;20088;-68
2022/06/29 08:07:59;;;;;;;6.82;4.47;;;;;;;21.71;83.44;101397.59;4993885;28;20026;-68
2022/06/29 08:10:24;;;;;;;7.65;4.95;;;;;;;21.86;82.37;101392.78;4993791;28;20117;-69
2022/06/29 08:12:50;;;;;;;6.80;4.53;;;;;;;21.96;81.12;101392.88;4993692;28;20109;-69
2022/06/29 08:15:17;;;;;;;9.52;3.95;;;;;;;22.08;80.70;101396.34;4992253;28;20069;-69
2022/06/29 08:17:43;;;;;;;8.80;4.25;;;;;;;22.21;81.90;101390.75;4991657;28;20031;-69
2022/06/29 08:20:09;;;;;;;7.70;4.18;;;;;;;22.29;81.72;101390.97;4992850;28;20093;-69
2022/06/29 08:22:34;;;;;;;6.75;4.80;;;;;;;22.35;81.02;101390.44;4992648;28;20058;-70
2022/06/29 08:25:00;;;;;;;7.25;4.60;;;;;;;22.41;81.29;101389.94;5009328;28;20125;-70
2022/06/29 08:27:25;;;;;;;9.85;4.28;;;;;;;22.54;81.76;101389.72;4995908;28;20031;-73
2022/06/29 08:29:51;;;;;;;6.97;4.10;;;;;;;22.59;79.16;101386.63;4999738;28;20034;-69
2022/06/29 08:32:17;;;;;;;6.82;4.15;;;;;;;22.67;79.01;101380.56;5008597;28;20033;-69
2022/06/29 08:34:42;;;;;;;4.68;3.08;;;;;;;22.81;80.10;101380.19;4993059;28;20033;-69
2022/06/29 08:37:08;;;;;;;7.55;3.00;;;;;;;22.99;79.62;101383.13;4993392;28;20526;-69
2022/06/29 08:39:34;;;;;;;8.32;3.80;;;;;;;23.26;76.85;101380.78;5008487;28;20037;-69
2022/06/29 08:42:04;;;;;;;6.28;3.83;;;;;;;24.16;72.98;101376.16;4992747;28;20069;-69
2022/06/29 08:44:34;;;;;;;8.63;3.47;;;;;;;25.64;68.09;101379.94;4993251;28;20030;-69
2022/06/29 08:47:08;;;;;;;10.70;3.85;;;;;;;27.06;60.20;101381.63;4993164;28;20500;-70
2022/06/29 08:49:34;;;;;;;7.65;3.10;;;;;;;28.51;49.54;101378.53;4992933;28;20037;-70
2022/06/29 08:52:03;;;;;;;5.63;2.85;;;;;;;29.49;44.58;101378.28;5007814;28;20114;-69
2022/06/29 08:54:31;;;;;;;12.48;3.05;;;;;;;29.84;41.99;101378.72;4992953;28;20169;-69
2022/06/29 08:56:58;;;;;;;6.88;2.72;;;;;;;29.99;40.73;101376.06;4991825;28;20551;-69
2022/06/29 08:59:24;;;;;;;6.40;2.60;;;;;;;30.52;40.04;101368.72;4992755;28;20474;-69
2022/06/29 09:01:50;;;;;;;9.85;2.95;;;;;;;30.94;37.57;101376.44;4992392;28;20515;-70
2022/06/29 09:04:17;;;;;;;6.53;2.50;;;;;;;30.89;37.27;101369.63;4992908;28;20429;-68
2022/06/29 09:06:43;;;;;;;6.40;2.50;;;;;;;31.17;37.42;101373.59;4992819;28;20022;-68
2022/06/29 09:09:08;;;;;;;5.05;2.40;;;;;;;31.23;35.42;101372.81;5007842;28;20043;-68
2022/06/29 09:11:34;;;;;;;4.72;2.30;;;;;;;31.29;35.45;101360.25;5007627;28;20035;-70
2022/06/29 09:14:15;;;;;;;5.95;2.63;;;;;;;31.16;35.72;101370.00;4991264;28;20496;-69
2022/06/29 09:16:49;;;;;;;4.75;2.10;;;;;;;31.82;36.32;101370.91;4992670;28;20030;-69
2022/06/29 09:19:15;;;;;;;5.72;2.40;;;;;;;32.00;33.96;101365.78;4992845;28;20022;-69
2022/06/29 09:21:48;;;;;;;4.47;2.40;;;;;;;32.03;33.03;101375.50;4992225;28;20091;-69
2022/06/29 09:24:19;;;;;;;5.78;2.20;;;;;;;31.18;31.08;101376.13;4991423;28;20026;-69
2022/06/29 09:26:49;;;;;;;4.95;2.13;;;;;;;31.06;32.31;101361.25;4992644;28;20030;-69
2022/06/29 09:29:28;;;;;;;7.68;2.10;;;;;;;31.16;33.05;101367.25;4991406;28;20057;-69
2022/06/29 09:32:04;;;;;;;5.93;2.20;;;;;;;31.52;31.74;101366.41;4992152;28;20500;-69
2022/06/29 09:34:33;;;;;;;6.32;2.00;;;;;;;31.43;31.99;101364.81;4992246;28;20070;-69
2022/06/29 09:37:01;;;;;;;5.43;2.10;;;;;;;31.40;32.58;101369.84;4992693;28;20042;-69
2022/06/29 09:39:38;;;;;;;4.13;2.05;;;;;;;31.51;32.14;101363.84;4991064;28;20191;-69
2022/06/29 09:42:05;;;;;;;4.60;2.00;;;;;;;31.19;31.28;101371.50;4992198;28;20362;-68
2022/06/29 09:44:31;;;;;;;5.85;2.10;;;;;;;31.08;33.53;101361.06;4992314;28;20054;-68
2022/06/29 09:46:57;;;;;;;4.28;2.20;;;;;;;31.67;32.25;101373.72;5007251;28;20065;-68
2022/06/29 09:49:28;;;;;;;5.50;1.90;;;;;;;31.81;30.89;101372.78;5007275;28;20141;-69
2022/06/29 09:51:59;;;;;;;2.83;1.95;;;;;;;31.75;31.12;101370.00;4991859;28;20032;-68
2022/06/29 09:54:55;;;;;;;4.93;2.00;;;;;;;31.44;30.01;101365.69;4992324;28;20034;-68
2022/06/29 09:57:23;;;;;;;5.75;2.47;;;;;;;30.90;31.56;101373.22;4982423;28;20034;-69
2022/06/29 10:02:43;;;;;;;5.23;1.93;;;;;;;30.86;31.53;101370.03;4991777;28;20669;-69
2022/06/29 10:05:08;;;;;;;;;;;;;;;31.14;31.04;101361.16;4992573;28;20030;-69
2022/06/29 10:07:36;;;;;;;4.88;2.05;;;;;;;30.75;31.81;101356.00;4992232;28;19916;-69
2022/06/29 10:10:05;;;;;;;5.82;2.05;;;;;;;30.75;31.52;101356.84;5007263;28;20061;-69
2022/06/29 10:15:51;;;;;;;5.70;2.10;;;;;;;31.15;32.71;101364.72;4991848;28;20069;-69
2022/06/29 10:18:22;;;;;;;7.38;2.30;;;;;;;31.23;31.32;101361.00;4992315;28;20609;-69
2022/06/29 10:20:49;;;;;;;5.82;2.33;;;;;;;31.32;30.11;101355.25;4992090;28;20031;-69
2022/06/29 10:23:42;;;;;;;4.20;2.00;;;;;;;31.64;29.32;101358.53;4992018;28;20034;-69
2022/06/29 10:26:30;;;;;;;2.42;1.90;;;;;;;32.25;30.18;101348.09;4990685;28;20027;-68
2022/06/29 10:29:16;;;;;;;7.47;2.03;;;;;;;31.93;28.86;101348.44;5006931;28;20026;-69
2022/06/29 10:31:54;;;;;;;3.40;1.70;;;;;;;32.07;29.56;101352.13;4991058;28;20117;-68
2022/06/29 10:34:31;;;;;;;4.22;1.90;;;;;;;31.09;30.09;101344.47;4991947;28;20037;-69
2022/06/29 10:37:16;;;;;;;5.18;2.00;;;;;;;30.07;31.91;101349.53;4991770;28;20054;-69
2022/06/29 10:39:48;;;;;;;4.53;2.13;;;;;;;29.61;31.19;101346.00;4990118;28;20042;-69
2022/06/29 10:45:08;;;;;;;4.07;1.80;;;;;;;30.39;33.44;101335.72;4993239;28;20036;-70
2022/06/29 10:47:35;;;;;;;4.28;1.90;;;;;;;30.13;32.23;101342.47;4995515;28;20030;-67
2022/06/29 10:50:23;;;;;;;6.38;2.00;;;;;;;29.54;34.08;101332.22;4995607;28;20378;-70
2022/06/29 10:52:51;;;;;;;5.78;2.03;;;;;;;29.32;34.11;101323.84;4995071;28;20027;-69
2022/06/29 10:55:17;;;;;;;4.32;2.20;;;;;;;28.76;35.18;101326.69;4995280;28;20030;-68
2022/06/29 10:57:44;;;;;;;7.85;2.10;;;;;;;29.33;32.99;101325.53;4995222;28;20026;-68
2022/06/29 11:00:18;;;;;;;6.72;2.15;;;;;;;30.15;31.36;101321.28;4995078;28;20026;-68
2022/06/29 11:02:44;;;;;;;2.63;1.80;;;;;;;30.49;29.93;101325.38;4994591;28;20046;-68
2022/06/29 11:05:10;;;;;;;4.05;2.10;;;;;;;29.78;32.13;101333.06;4993763;28;20035;-69
2022/06/29 11:13:07;;;;;;;4.03;2.15;;;;;;;32.23;30.04;101334.59;4994984;28;20189;-69
2022/06/29 11:15:40;;;;;;;4.85;2.10;;;;;;;32.62;29.02;101335.00;4994778;28;20049;-69
2022/06/29 11:18:07;;;;;;;5.70;2.00;;;;;;;32.57;28.76;101321.91;4994881;28;20030;-69
2022/06/29 11:20:33;;;;;;;5.10;2.28;;;;;;;32.26;30.15;101331.44;4994846;28;20477;-69
2022/06/29 11:22:58;;;;;;;6.85;2.40;;;;;;;32.67;29.15;101324.28;4993382;28;20045;-69
2022/06/29 11:25:24;;;;;;;5.63;2.50;;;;;;;32.69;27.64;101330.41;5009663;28;20034;-69
2022/06/29 11:27:50;;;;;;;5.18;2.38;;;;;;;31.20;29.32;101326.69;4994586;28;20061;-70
2022/06/29 11:30:21;;;;;;;5.53;2.30;;;;;;;30.17;30.38;101332.03;5009955;28;20494;-69
2022/06/29 11:32:48;;;;;;;7.60;2.10;;;;;;;29.67;31.66;101318.81;4994515;28;20109;-69
2022/06/29 11:35:21;;;;;;;4.70;1.95;;;;;;;29.75;31.78;101328.81;5009676;28;20026;-69
2022/06/29 11:37:56;;;;;;;6.88;1.80;;;;;;;29.41;28.15;101328.22;4994636;28;20018;-69
2022/06/29 11:40:35;;;;;;;4.60;1.85;;;;;;;29.19;28.65;101332.59;4994440;28;20058;-69
2022/06/29 11:43:08;;;;;;;3.25;1.83;;;;;;;28.84;28.75;101333.97;4994135;28;20033;-69